sensor_id;sensor_type;location;lat;lon;timestamp;pressure;altitude;pressure_sealevel;temperature;humidity
73016;BME280;61893;50.074;14.440;2022-08-03T00:00:31;98657.47;;;20.90;59.70
73016;BME280;61893;50.074;14.440;2022-08-03T00:03:02;98656.03;;;20.87;59.79
73016;BME280;61893;50.074;14.440;2022-08-03T00:05:28;98658.94;;;20.86;60.21
73016;BME280;61893;50.074;14.440;2022-08-03T00:07:57;98653.16;;;20.82;59.74
73016;BME280;61893;50.074;14.440;2022-08-03T00:10:24;98658.53;;;20.89;59.85
73016;BME280;61893;50.074;14.440;2022-08-03T00:12:53;98646.22;;;20.93;59.55
73016;BME280;61893;50.074;14.440;2022-08-03T00:15:20;98642.94;;;20.84;60.05
73016;BME280;61893;50.074;14.440;2022-08-03T00:17:46;98641.13;;;20.72;60.45
73016;BME280;61893;50.074;14.440;2022-08-03T00:20:15;98639.94;;;20.61;61.37
73016;BME280;61893;50.074;14.440;2022-08-03T00:22:44;98644.25;;;20.68;60.97
73016;BME280;61893;50.074;14.440;2022-08-03T00:25:10;98640.72;;;20.75;60.31
73016;BME280;61893;50.074;14.440;2022-08-03T00:27:36;98640.09;;;20.73;60.27
73016;BME280;61893;50.074;14.440;2022-08-03T00:30:32;98638.66;;;20.70;60.34
73016;BME280;61893;50.074;14.440;2022-08-03T00:32:59;98636.56;;;20.65;60.78
73016;BME280;61893;50.074;14.440;2022-08-03T00:35:28;98640.75;;;20.61;60.76
73016;BME280;61893;50.074;14.440;2022-08-03T00:37:56;98640.34;;;20.51;61.33
73016;BME280;61893;50.074;14.440;2022-08-03T00:40:37;98637.06;;;20.42;62.14
73016;BME280;61893;50.074;14.440;2022-08-03T00:43:12;98647.28;;;20.40;62.36
73016;BME280;61893;50.074;14.440;2022-08-03T00:45:40;98638.97;;;20.35;61.94
73016;BME280;61893;50.074;14.440;2022-08-03T00:48:10;98637.72;;;20.31;61.96
73016;BME280;61893;50.074;14.440;2022-08-03T00:50:40;98637.13;;;20.29;61.99
73016;BME280;61893;50.074;14.440;2022-08-03T00:53:10;98636.25;;;20.29;62.60
73016;BME280;61893;50.074;14.440;2022-08-03T00:55:38;98638.59;;;20.18;62.79
73016;BME280;61893;50.074;14.440;2022-08-03T00:58:04;98636.94;;;20.17;62.80
73016;BME280;61893;50.074;14.440;2022-08-03T01:00:33;98637.38;;;20.08;63.04
73016;BME280;61893;50.074;14.440;2022-08-03T01:03:08;98634.03;;;20.06;63.66
73016;BME280;61893;50.074;14.440;2022-08-03T01:05:48;98643.22;;;19.98;64.03
73016;BME280;61893;50.074;14.440;2022-08-03T01:08:24;98644.03;;;19.85;64.61
73016;BME280;61893;50.074;14.440;2022-08-03T01:11:31;98640.72;;;19.76;65.06
73016;BME280;61893;50.074;14.440;2022-08-03T01:14:12;98641.53;;;19.64;65.06
73016;BME280;61893;50.074;14.440;2022-08-03T01:17:12;98643.03;;;19.66;65.10
73016;BME280;61893;50.074;14.440;2022-08-03T01:19:44;98649.03;;;19.68;64.44
73016;BME280;61893;50.074;14.440;2022-08-03T01:25:05;98651.53;;;19.63;65.37
73016;BME280;61893;50.074;14.440;2022-08-03T01:30:13;98650.91;;;19.68;64.51
73016;BME280;61893;50.074;14.440;2022-08-03T01:32:53;98647.19;;;19.69;64.58
73016;BME280;61893;50.074;14.440;2022-08-03T01:35:31;98645.06;;;19.64;65.11
73016;BME280;61893;50.074;14.440;2022-08-03T01:38:13;98638.22;;;19.62;65.08
73016;BME280;61893;50.074;14.440;2022-08-03T01:41:02;98643.41;;;19.56;65.21
73016;BME280;61893;50.074;14.440;2022-08-03T01:43:30;98643.19;;;19.51;66.25
73016;BME280;61893;50.074;14.440;2022-08-03T01:46:02;98644.63;;;19.54;65.62
73016;BME280;61893;50.074;14.440;2022-08-03T01:48:32;98640.69;;;19.56;65.50
73016;BME280;61893;50.074;14.440;2022-08-03T01:50:59;98639.88;;;19.63;65.47
73016;BME280;61893;50.074;14.440;2022-08-03T01:53:30;98636.16;;;19.44;65.76
73016;BME280;61893;50.074;14.440;2022-08-03T01:55:59;98632.63;;;19.50;66.03
73016;BME280;61893;50.074;14.440;2022-08-03T01:58:28;98639.44;;;19.46;65.79
73016;BME280;61893;50.074;14.440;2022-08-03T02:00:57;98636.75;;;19.46;65.58
73016;BME280;61893;50.074;14.440;2022-08-03T02:03:31;98634.69;;;19.54;65.50
73016;BME280;61893;50.074;14.440;2022-08-03T02:06:01;98639.25;;;19.41;65.63
73016;BME280;61893;50.074;14.440;2022-08-03T02:08:29;98635.09;;;19.58;64.58
73016;BME280;61893;50.074;14.440;2022-08-03T02:10:59;98637.16;;;19.63;64.42
73016;BME280;61893;50.074;14.440;2022-08-03T02:13:27;98631.16;;;19.61;64.42
73016;BME280;61893;50.074;14.440;2022-08-03T02:15:57;98628.03;;;19.50;64.71
73016;BME280;61893;50.074;14.440;2022-08-03T02:18:28;98637.78;;;19.45;65.36
73016;BME280;61893;50.074;14.440;2022-08-03T02:21:00;98633.84;;;19.41;65.81
73016;BME280;61893;50.074;14.440;2022-08-03T02:23:39;98624.09;;;19.40;65.72
73016;BME280;61893;50.074;14.440;2022-08-03T02:26:14;98629.06;;;19.43;65.70
73016;BME280;61893;50.074;14.440;2022-08-03T02:28:44;98626.59;;;19.34;65.97
73016;BME280;61893;50.074;14.440;2022-08-03T02:31:18;98631.75;;;19.43;65.98
73016;BME280;61893;50.074;14.440;2022-08-03T02:33:52;98628.03;;;19.30;66.51
73016;BME280;61893;50.074;14.440;2022-08-03T02:36:27;98632.56;;;19.17;67.35
73016;BME280;61893;50.074;14.440;2022-08-03T02:39:10;98627.84;;;19.32;66.86
73016;BME280;61893;50.074;14.440;2022-08-03T02:41:50;98623.47;;;19.24;66.71
73016;BME280;61893;50.074;14.440;2022-08-03T02:44:22;98627.41;;;19.15;67.58
73016;BME280;61893;50.074;14.440;2022-08-03T02:46:57;98631.28;;;18.99;68.41
73016;BME280;61893;50.074;14.440;2022-08-03T05:08:17;98703.66;;;18.89;69.24
73016;BME280;61893;50.074;14.440;2022-08-03T05:10:50;98699.34;;;18.95;68.52
73016;BME280;61893;50.074;14.440;2022-08-03T05:13:21;98704.75;;;19.08;67.88
73016;BME280;61893;50.074;14.440;2022-08-03T05:15:47;98705.81;;;19.13;67.58
73016;BME280;61893;50.074;14.440;2022-08-03T05:18:41;98708.53;;;19.20;67.38
73016;BME280;61893;50.074;14.440;2022-08-03T05:28:54;98711.69;;;19.44;66.07
73016;BME280;61893;50.074;14.440;2022-08-03T05:31:45;98705.06;;;19.53;65.54
73016;BME280;61893;50.074;14.440;2022-08-03T05:34:38;98703.19;;;19.47;65.57
73016;BME280;61893;50.074;14.440;2022-08-03T05:38:25;98712.81;;;19.69;64.89
73016;BME280;61893;50.074;14.440;2022-08-03T05:41:17;98710.53;;;19.86;64.38
73016;BME280;61893;50.074;14.440;2022-08-03T05:44:48;98701.78;;;19.71;64.90
73016;BME280;61893;50.074;14.440;2022-08-03T05:47:20;98703.44;;;19.78;64.98
73016;BME280;61893;50.074;14.440;2022-08-03T05:50:07;98709.88;;;19.91;64.44
73016;BME280;61893;50.074;14.440;2022-08-03T05:53:14;98702.41;;;20.13;63.54
73016;BME280;61893;50.074;14.440;2022-08-03T05:55:57;98699.91;;;20.18;63.23
73016;BME280;61893;50.074;14.440;2022-08-03T05:58:25;98707.34;;;20.22;63.61
73016;BME280;61893;50.074;14.440;2022-08-03T06:00:53;98712.13;;;20.34;63.08
73016;BME280;61893;50.074;14.440;2022-08-03T06:03:54;98707.53;;;20.54;62.35
73016;BME280;61893;50.074;14.440;2022-08-03T06:06:22;98708.97;;;20.63;62.19
73016;BME280;61893;50.074;14.440;2022-08-03T06:08:48;98700.63;;;20.65;62.21
73016;BME280;61893;50.074;14.440;2022-08-03T06:44:38;98722.63;;;21.65;58.24
73016;BME280;61893;50.074;14.440;2022-08-03T06:47:10;98724.00;;;21.74;58.33
73016;BME280;61893;50.074;14.440;2022-08-03T06:49:40;98721.94;;;22.01;57.58
73016;BME280;61893;50.074;14.440;2022-08-03T06:53:25;98721.41;;;22.18;57.05
73016;BME280;61893;50.074;14.440;2022-08-03T06:56:09;98723.91;;;22.13;56.83
73016;BME280;61893;50.074;14.440;2022-08-03T06:59:08;98727.38;;;22.26;57.00
73016;BME280;61893;50.074;14.440;2022-08-03T07:01:57;98728.94;;;22.34;56.28
73016;BME280;61893;50.074;14.440;2022-08-03T07:05:00;98727.47;;;22.57;55.89
73016;BME280;61893;50.074;14.440;2022-08-03T07:07:44;98736.97;;;22.47;55.70
73016;BME280;61893;50.074;14.440;2022-08-03T07:10:25;98731.59;;;22.78;55.08
73016;BME280;61893;50.074;14.440;2022-08-03T07:12:55;98727.50;;;22.75;54.76
73016;BME280;61893;50.074;14.440;2022-08-03T07:15:41;98728.47;;;22.81;55.08
73016;BME280;61893;50.074;14.440;2022-08-03T07:18:13;98723.78;;;23.06;54.32
73016;BME280;61893;50.074;14.440;2022-08-03T07:20:52;98723.91;;;23.11;54.26
73016;BME280;61893;50.074;14.440;2022-08-03T07:23:32;98731.59;;;23.14;53.60
73016;BME280;61893;50.074;14.440;2022-08-03T07:26:06;98722.22;;;22.99;54.33
73016;BME280;61893;50.074;14.440;2022-08-03T07:28:37;98726.84;;;23.28;53.28
73016;BME280;61893;50.074;14.440;2022-08-03T07:31:19;98716.72;;;23.35;53.00
73016;BME280;61893;50.074;14.440;2022-08-03T07:34:00;98722.19;;;23.47;52.54
73016;BME280;61893;50.074;14.440;2022-08-03T07:36:40;98719.91;;;23.74;51.60
73016;BME280;61893;50.074;14.440;2022-08-03T07:39:24;98724.59;;;23.67;51.75
73016;BME280;61893;50.074;14.440;2022-08-03T07:42:08;98724.06;;;23.89;51.68
73016;BME280;61893;50.074;14.440;2022-08-03T07:44:35;98721.59;;;23.75;51.79
73016;BME280;61893;50.074;14.440;2022-08-03T07:47:08;98723.31;;;23.70;52.14
73016;BME280;61893;50.074;14.440;2022-08-03T07:49:52;98722.72;;;23.68;51.91
73016;BME280;61893;50.074;14.440;2022-08-03T07:52:38;98720.91;;;24.03;51.28
73016;BME280;61893;50.074;14.440;2022-08-03T07:55:45;98718.44;;;24.14;50.96
73016;BME280;61893;50.074;14.440;2022-08-03T07:58:34;98724.34;;;23.99;51.36
73016;BME280;61893;50.074;14.440;2022-08-03T08:01:22;98719.72;;;24.23;51.19
73016;BME280;61893;50.074;14.440;2022-08-03T08:03:52;98723.16;;;24.42;50.58
73016;BME280;61893;50.074;14.440;2022-08-03T08:06:25;98718.91;;;24.34;50.49
73016;BME280;61893;50.074;14.440;2022-08-03T08:09:06;98722.94;;;24.43;50.36
73016;BME280;61893;50.074;14.440;2022-08-03T08:12:04;98716.81;;;24.48;50.92
73016;BME280;61893;50.074;14.440;2022-08-03T08:14:57;98719.34;;;24.90;50.17
73016;BME280;61893;50.074;14.440;2022-08-03T08:17:53;98711.94;;;25.14;48.84
73016;BME280;61893;50.074;14.440;2022-08-03T08:20:56;98715.66;;;25.36;48.94
73016;BME280;61893;50.074;14.440;2022-08-03T08:23:50;98715.50;;;25.14;49.44
73016;BME280;61893;50.074;14.440;2022-08-03T08:26:45;98716.19;;;25.50;47.74
73016;BME280;61893;50.074;14.440;2022-08-03T08:29:28;98715.44;;;25.55;47.95
73016;BME280;61893;50.074;14.440;2022-08-03T08:32:45;98718.53;;;25.47;46.91
73016;BME280;61893;50.074;14.440;2022-08-03T08:35:31;98712.16;;;25.70;46.28
73016;BME280;61893;50.074;14.440;2022-08-03T08:38:21;98711.47;;;25.62;45.89
73016;BME280;61893;50.074;14.440;2022-08-03T08:41:38;98709.13;;;25.37;46.62
73016;BME280;61893;50.074;14.440;2022-08-03T08:44:23;98708.00;;;25.50;46.93
73016;BME280;61893;50.074;14.440;2022-08-03T08:47:32;98706.34;;;25.66;46.46
73016;BME280;61893;50.074;14.440;2022-08-03T10:49:46;98652.06;;;29.99;35.91
73016;BME280;61893;50.074;14.440;2022-08-03T10:52:13;98647.13;;;29.55;35.67
73016;BME280;61893;50.074;14.440;2022-08-03T10:54:43;98641.41;;;29.77;36.62
73016;BME280;61893;50.074;14.440;2022-08-03T10:57:52;98644.38;;;30.16;35.51
73016;BME280;61893;50.074;14.440;2022-08-03T11:00:23;98643.28;;;30.17;35.43
73016;BME280;61893;50.074;14.440;2022-08-03T11:05:41;98641.38;;;30.23;35.70
73016;BME280;61893;50.074;14.440;2022-08-03T11:10:52;98635.84;;;30.33;34.75
73016;BME280;61893;50.074;14.440;2022-08-03T11:13:24;98635.31;;;30.26;35.13
73016;BME280;61893;50.074;14.440;2022-08-03T11:15:54;98638.34;;;30.19;33.16
73016;BME280;61893;50.074;14.440;2022-08-03T11:18:20;98641.09;;;29.99;33.82
73016;BME280;61893;50.074;14.440;2022-08-03T11:20:53;98636.66;;;30.18;33.54
73016;BME280;61893;50.074;14.440;2022-08-03T11:23:43;98634.75;;;30.39;33.04
73016;BME280;61893;50.074;14.440;2022-08-03T11:26:22;98632.03;;;30.08;33.67
73016;BME280;61893;50.074;14.440;2022-08-03T11:28:50;98627.94;;;30.06;33.09
73016;BME280;61893;50.074;14.440;2022-08-03T11:34:14;98626.25;;;30.95;31.21
73016;BME280;61893;50.074;14.440;2022-08-03T11:37:23;98627.50;;;31.18;30.19
73016;BME280;61893;50.074;14.440;2022-08-03T11:39:53;98627.75;;;31.61;30.90
73016;BME280;61893;50.074;14.440;2022-08-03T11:44:53;98614.06;;;31.56;29.43
73016;BME280;61893;50.074;14.440;2022-08-03T11:47:20;98615.47;;;32.12;29.29
73016;BME280;61893;50.074;14.440;2022-08-03T11:49:48;98616.50;;;32.69;29.44
73016;BME280;61893;50.074;14.440;2022-08-03T11:52:15;98613.56;;;32.61;29.65
73016;BME280;61893;50.074;14.440;2022-08-03T11:54:42;98603.03;;;33.25;29.06
73016;BME280;61893;50.074;14.440;2022-08-03T11:57:09;98603.25;;;32.47;29.47
73016;BME280;61893;50.074;14.440;2022-08-03T11:59:35;98606.50;;;32.73;28.33
73016;BME280;61893;50.074;14.440;2022-08-03T12:02:09;98603.91;;;32.82;29.46
73016;BME280;61893;50.074;14.440;2022-08-03T12:04:49;98604.25;;;33.18;28.94
73016;BME280;61893;50.074;14.440;2022-08-03T12:07:15;98604.13;;;32.67;29.63
73016;BME280;61893;50.074;14.440;2022-08-03T12:09:43;98602.00;;;32.83;28.88
73016;BME280;61893;50.074;14.440;2022-08-03T12:12:09;98601.97;;;32.40;29.76
73016;BME280;61893;50.074;14.440;2022-08-03T12:14:45;98601.66;;;32.17;29.29
73016;BME280;61893;50.074;14.440;2022-08-03T12:17:11;98599.47;;;31.56;30.31
73016;BME280;61893;50.074;14.440;2022-08-03T12:19:45;98603.78;;;31.67;30.00
73016;BME280;61893;50.074;14.440;2022-08-03T12:22:11;98597.56;;;32.39;28.34
73016;BME280;61893;50.074;14.440;2022-08-03T12:24:42;98585.84;;;32.04;29.54
73016;BME280;61893;50.074;14.440;2022-08-03T12:27:08;98592.00;;;33.25;28.13
73016;BME280;61893;50.074;14.440;2022-08-03T12:29:34;98588.09;;;33.63;27.86
73016;BME280;61893;50.074;14.440;2022-08-03T12:32:02;98587.75;;;33.84;28.23
73016;BME280;61893;50.074;14.440;2022-08-03T12:34:48;98587.13;;;33.87;27.03
73016;BME280;61893;50.074;14.440;2022-08-03T12:37:21;98585.66;;;34.36;26.54
73016;BME280;61893;50.074;14.440;2022-08-03T12:39:52;98591.81;;;34.61;25.12
73016;BME280;61893;50.074;14.440;2022-08-03T12:42:18;98590.84;;;34.79;23.94
73016;BME280;61893;50.074;14.440;2022-08-03T12:44:45;98584.13;;;34.58;23.88
73016;BME280;61893;50.074;14.440;2022-08-03T12:47:13;98580.19;;;34.86;23.26
73016;BME280;61893;50.074;14.440;2022-08-03T12:49:45;98576.53;;;34.22;23.72
73016;BME280;61893;50.074;14.440;2022-08-03T12:52:12;98578.22;;;33.76;23.77
73016;BME280;61893;50.074;14.440;2022-08-03T12:54:38;98571.72;;;34.00;23.96
73016;BME280;61893;50.074;14.440;2022-08-03T12:57:10;98572.97;;;34.35;23.80
73016;BME280;61893;50.074;14.440;2022-08-03T12:59:38;98573.94;;;33.84;24.66
73016;BME280;61893;50.074;14.440;2022-08-03T13:02:23;98573.91;;;34.58;23.63
73016;BME280;61893;50.074;14.440;2022-08-03T13:04:51;98568.66;;;34.70;23.06
73016;BME280;61893;50.074;14.440;2022-08-03T13:07:19;98575.41;;;34.50;24.41
73016;BME280;61893;50.074;14.440;2022-08-03T13:09:50;98567.69;;;35.48;23.26
73016;BME280;61893;50.074;14.440;2022-08-03T13:12:25;98570.31;;;34.94;22.90
73016;BME280;61893;50.074;14.440;2022-08-03T13:14:54;98566.44;;;35.09;22.25
73016;BME280;61893;50.074;14.440;2022-08-03T13:17:20;98567.06;;;34.92;23.73
73016;BME280;61893;50.074;14.440;2022-08-03T13:19:47;98573.50;;;35.60;21.97
73016;BME280;61893;50.074;14.440;2022-08-03T13:22:17;98567.66;;;34.39;23.47
73016;BME280;61893;50.074;14.440;2022-08-03T13:24:59;98578.19;;;35.37;21.69
73016;BME280;61893;50.074;14.440;2022-08-03T13:27:29;98566.25;;;35.28;22.22
73016;BME280;61893;50.074;14.440;2022-08-03T13:29:56;98573.22;;;35.25;22.12
73016;BME280;61893;50.074;14.440;2022-08-03T13:32:22;98563.97;;;34.93;22.67
73016;BME280;61893;50.074;14.440;2022-08-03T13:34:51;98573.59;;;34.96;23.12
73016;BME280;61893;50.074;14.440;2022-08-03T13:37:17;98565.44;;;35.27;22.80
73016;BME280;61893;50.074;14.440;2022-08-03T13:40:18;98561.47;;;35.19;22.74
73016;BME280;61893;50.074;14.440;2022-08-03T13:43:03;98568.50;;;34.89;23.23
73016;BME280;61893;50.074;14.440;2022-08-03T13:45:43;98559.97;;;34.63;23.69
73016;BME280;61893;50.074;14.440;2022-08-03T13:48:10;98559.66;;;35.15;22.97
73016;BME280;61893;50.074;14.440;2022-08-03T13:50:35;98561.63;;;35.01;22.73
73016;BME280;61893;50.074;14.440;2022-08-03T13:53:01;98557.13;;;35.50;23.09
73016;BME280;61893;50.074;14.440;2022-08-03T13:55:27;98547.38;;;35.52;22.62
73016;BME280;61893;50.074;14.440;2022-08-03T13:57:53;98555.22;;;35.36;22.43
73016;BME280;61893;50.074;14.440;2022-08-03T14:00:19;98548.19;;;34.71;23.41
73016;BME280;61893;50.074;14.440;2022-08-03T14:02:49;98547.31;;;34.21;23.84
73016;BME280;61893;50.074;14.440;2022-08-03T14:05:15;98537.44;;;35.82;21.59
73016;BME280;61893;50.074;14.440;2022-08-03T14:07:41;98548.34;;;35.79;22.85
73016;BME280;61893;50.074;14.440;2022-08-03T14:10:11;98547.38;;;35.75;22.17
73016;BME280;61893;50.074;14.440;2022-08-03T14:12:43;98539.59;;;36.25;21.70
73016;BME280;61893;50.074;14.440;2022-08-03T14:15:28;98529.13;;;36.88;21.44
73016;BME280;61893;50.074;14.440;2022-08-03T14:17:58;98524.41;;;36.14;21.96
73016;BME280;61893;50.074;14.440;2022-08-03T14:20:30;98531.09;;;36.13;21.87
73016;BME280;61893;50.074;14.440;2022-08-03T14:23:01;98530.13;;;36.84;20.60
73016;BME280;61893;50.074;14.440;2022-08-03T14:25:57;98525.53;;;36.04;21.75
73016;BME280;61893;50.074;14.440;2022-08-03T14:28:44;98527.84;;;35.80;22.33
73016;BME280;61893;50.074;14.440;2022-08-03T14:31:39;98522.03;;;36.30;21.20
73016;BME280;61893;50.074;14.440;2022-08-03T14:34:06;98523.88;;;36.52;22.05
73016;BME280;61893;50.074;14.440;2022-08-03T14:36:32;98521.03;;;36.17;21.39
73016;BME280;61893;50.074;14.440;2022-08-03T14:39:01;98514.47;;;35.51;22.43
73016;BME280;61893;50.074;14.440;2022-08-03T14:41:31;98518.59;;;36.24;21.60
73016;BME280;61893;50.074;14.440;2022-08-03T14:43:57;98521.75;;;36.00;22.14
73016;BME280;61893;50.074;14.440;2022-08-03T14:46:25;98517.09;;;35.78;21.53
73016;BME280;61893;50.074;14.440;2022-08-03T14:49:05;98509.16;;;36.51;20.88
73016;BME280;61893;50.074;14.440;2022-08-03T14:51:31;98515.50;;;35.55;21.58
73016;BME280;61893;50.074;14.440;2022-08-03T14:53:59;98511.06;;;36.16;21.44
73016;BME280;61893;50.074;14.440;2022-08-03T14:56:39;98512.88;;;35.27;22.77
73016;BME280;61893;50.074;14.440;2022-08-03T14:59:06;98509.84;;;36.00;21.80
73016;BME280;61893;50.074;14.440;2022-08-03T15:01:33;98513.63;;;36.52;21.46
73016;BME280;61893;50.074;14.440;2022-08-03T15:03:59;98515.63;;;35.81;22.12
73016;BME280;61893;50.074;14.440;2022-08-03T15:06:25;98500.75;;;36.65;20.32
73016;BME280;61893;50.074;14.440;2022-08-03T15:08:58;98497.16;;;36.56;21.29
73016;BME280;61893;50.074;14.440;2022-08-03T15:11:24;98502.78;;;36.25;21.80
73016;BME280;61893;50.074;14.440;2022-08-03T15:13:52;98500.59;;;36.70;21.11
73016;BME280;61893;50.074;14.440;2022-08-03T15:16:19;98495.03;;;36.53;21.33
73016;BME280;61893;50.074;14.440;2022-08-03T15:18:46;98494.63;;;36.28;21.75
73016;BME280;61893;50.074;14.440;2022-08-03T15:21:12;98498.69;;;36.22;21.14
73016;BME280;61893;50.074;14.440;2022-08-03T15:23:38;98490.75;;;35.90;21.56
73016;BME280;61893;50.074;14.440;2022-08-03T15:26:04;98489.50;;;36.70;21.31
73016;BME280;61893;50.074;14.440;2022-08-03T15:28:30;98489.34;;;36.58;20.99
73016;BME280;61893;50.074;14.440;2022-08-03T15:30:57;98490.31;;;37.06;21.58
73016;BME280;61893;50.074;14.440;2022-08-03T15:33:23;98488.13;;;37.46;19.97
73016;BME280;61893;50.074;14.440;2022-08-03T15:35:52;98486.56;;;37.10;19.98
73016;BME280;61893;50.074;14.440;2022-08-03T15:38:19;98481.38;;;37.09;19.88
73016;BME280;61893;50.074;14.440;2022-08-03T15:40:47;98484.66;;;35.70;21.59
73016;BME280;61893;50.074;14.440;2022-08-03T15:43:14;98487.88;;;34.73;22.53
73016;BME280;61893;50.074;14.440;2022-08-03T15:45:40;98475.47;;;35.30;21.58
73016;BME280;61893;50.074;14.440;2022-08-03T15:48:07;98481.94;;;35.87;21.58
73016;BME280;61893;50.074;14.440;2022-08-03T15:50:34;98476.78;;;35.32;22.78
73016;BME280;61893;50.074;14.440;2022-08-03T15:53:00;98479.88;;;36.02;22.71
73016;BME280;61893;50.074;14.440;2022-08-03T15:55:29;98482.00;;;36.71;20.87
73016;BME280;61893;50.074;14.440;2022-08-03T15:57:57;98474.63;;;35.83;21.79
73016;BME280;61893;50.074;14.440;2022-08-03T16:00:23;98479.41;;;36.66;20.22
73016;BME280;61893;50.074;14.440;2022-08-03T16:02:52;98480.47;;;36.47;21.44
73016;BME280;61893;50.074;14.440;2022-08-03T16:05:24;98474.16;;;37.16;20.61
73016;BME280;61893;50.074;14.440;2022-08-03T16:07:50;98481.53;;;36.78;20.84
73016;BME280;61893;50.074;14.440;2022-08-03T16:10:21;98474.50;;;35.57;22.49
73016;BME280;61893;50.074;14.440;2022-08-03T16:12:49;98473.75;;;36.22;21.69
73016;BME280;61893;50.074;14.440;2022-08-03T16:15:15;98470.09;;;36.88;20.14
73016;BME280;61893;50.074;14.440;2022-08-03T16:17:42;98474.16;;;36.56;21.12
73016;BME280;61893;50.074;14.440;2022-08-03T16:20:09;98469.44;;;36.73;21.24
73016;BME280;61893;50.074;14.440;2022-08-03T16:22:43;98457.66;;;36.42;20.92
73016;BME280;61893;50.074;14.440;2022-08-03T16:25:15;98459.88;;;35.65;22.19
73016;BME280;61893;50.074;14.440;2022-08-03T16:28:06;98456.84;;;36.41;20.47
73016;BME280;61893;50.074;14.440;2022-08-03T16:30:33;98458.84;;;36.75;20.14
73016;BME280;61893;50.074;14.440;2022-08-03T16:33:03;98452.16;;;36.76;20.22
73016;BME280;61893;50.074;14.440;2022-08-03T16:36:00;98452.97;;;36.68;20.52
73016;BME280;61893;50.074;14.440;2022-08-03T16:38:45;98450.84;;;36.65;20.75
73016;BME280;61893;50.074;14.440;2022-08-03T16:41:15;98456.00;;;36.15;20.52
73016;BME280;61893;50.074;14.440;2022-08-03T16:43:44;98457.38;;;35.24;22.70
73016;BME280;61893;50.074;14.440;2022-08-03T16:46:28;98452.00;;;36.73;19.85
73016;BME280;61893;50.074;14.440;2022-08-03T16:49:02;98456.47;;;36.17;20.32
73016;BME280;61893;50.074;14.440;2022-08-03T16:51:28;98449.72;;;36.75;19.81
73016;BME280;61893;50.074;14.440;2022-08-03T16:53:56;98458.31;;;36.99;19.92
73016;BME280;61893;50.074;14.440;2022-08-03T16:56:47;98461.06;;;36.30;20.63
73016;BME280;61893;50.074;14.440;2022-08-03T16:59:23;98456.84;;;36.33;21.29
73016;BME280;61893;50.074;14.440;2022-08-03T17:02:01;98469.66;;;36.11;21.31
73016;BME280;61893;50.074;14.440;2022-08-03T17:05:10;98459.78;;;36.36;20.08
73016;BME280;61893;50.074;14.440;2022-08-03T17:08:11;98465.69;;;36.78;19.89
73016;BME280;61893;50.074;14.440;2022-08-03T17:10:49;98470.25;;;36.74;19.87
73016;BME280;61893;50.074;14.440;2022-08-03T17:13:19;98476.03;;;36.12;21.07
73016;BME280;61893;50.074;14.440;2022-08-03T17:15:52;98467.75;;;36.20;21.45
73016;BME280;61893;50.074;14.440;2022-08-03T17:19:04;98472.16;;;36.30;20.32
73016;BME280;61893;50.074;14.440;2022-08-03T17:21:48;98466.66;;;36.73;20.60
73016;BME280;61893;50.074;14.440;2022-08-03T17:24:45;98472.88;;;36.79;20.23
73016;BME280;61893;50.074;14.440;2022-08-03T17:27:28;98474.13;;;36.29;20.62
73016;BME280;61893;50.074;14.440;2022-08-03T17:30:15;98469.44;;;35.99;20.30
73016;BME280;61893;50.074;14.440;2022-08-03T17:33:04;98469.91;;;36.41;20.73
73016;BME280;61893;50.074;14.440;2022-08-03T17:35:43;98475.97;;;35.32;21.25
73016;BME280;61893;50.074;14.440;2022-08-03T17:38:39;98481.66;;;35.98;20.08
73016;BME280;61893;50.074;14.440;2022-08-03T17:41:10;98475.56;;;36.18;19.90
73016;BME280;61893;50.074;14.440;2022-08-03T17:43:42;98483.78;;;34.71;22.05
73016;BME280;61893;50.074;14.440;2022-08-03T17:46:31;98476.84;;;36.12;20.55
73016;BME280;61893;50.074;14.440;2022-08-03T17:49:24;98470.72;;;35.53;21.31
73016;BME280;61893;50.074;14.440;2022-08-03T17:52:29;98470.69;;;35.22;20.98
73016;BME280;61893;50.074;14.440;2022-08-03T17:55:02;98475.03;;;34.69;22.09
73016;BME280;61893;50.074;14.440;2022-08-03T17:57:41;98471.88;;;34.84;20.64
73016;BME280;61893;50.074;14.440;2022-08-03T18:00:16;98478.25;;;34.71;21.03
73016;BME280;61893;50.074;14.440;2022-08-03T18:03:18;98480.38;;;34.51;21.43
73016;BME280;61893;50.074;14.440;2022-08-03T18:05:53;98481.84;;;34.21;22.26
73016;BME280;61893;50.074;14.440;2022-08-03T18:10:56;98481.22;;;33.83;21.90
73016;BME280;61893;50.074;14.440;2022-08-03T18:13:28;98481.22;;;33.23;22.63
73016;BME280;61893;50.074;14.440;2022-08-03T18:16:00;98479.84;;;33.06;23.20
73016;BME280;61893;50.074;14.440;2022-08-03T18:18:30;98474.34;;;32.06;25.21
73016;BME280;61893;50.074;14.440;2022-08-03T18:21:02;98480.66;;;31.83;25.75
73016;BME280;61893;50.074;14.440;2022-08-03T18:23:29;98476.22;;;31.00;26.84
73016;BME280;61893;50.074;14.440;2022-08-03T18:26:09;98481.03;;;30.34;27.77
73016;BME280;61893;50.074;14.440;2022-08-03T18:28:36;98491.53;;;30.12;28.02
73016;BME280;61893;50.074;14.440;2022-08-03T18:31:09;98485.81;;;30.08;28.39
73016;BME280;61893;50.074;14.440;2022-08-03T18:33:41;98483.66;;;29.84;28.33
73016;BME280;61893;50.074;14.440;2022-08-03T18:36:22;98490.59;;;29.41;29.39
73016;BME280;61893;50.074;14.440;2022-08-03T18:39:03;98487.59;;;29.27;29.79
73016;BME280;61893;50.074;14.440;2022-08-03T18:41:31;98491.47;;;29.16;29.42
73016;BME280;61893;50.074;14.440;2022-08-03T18:44:12;98490.88;;;28.98;30.04
73016;BME280;61893;50.074;14.440;2022-08-03T18:52:41;98492.47;;;28.64;31.10
73016;BME280;61893;50.074;14.440;2022-08-03T18:55:25;98487.97;;;28.27;31.69
73016;BME280;61893;50.074;14.440;2022-08-03T18:58:01;98487.97;;;28.27;31.94
73016;BME280;61893;50.074;14.440;2022-08-03T19:00:50;98493.69;;;28.15;31.97